createdAt,value
2024-03-02T00:01:25.390Z,85.86
2024-03-02T00:03:52.896Z,85.72
2024-03-02T00:06:22.976Z,86.70
2024-03-02T00:08:49.877Z,86.77
2024-03-02T00:11:17.440Z,86.48
2024-03-02T00:13:47.143Z,86.85
2024-03-02T00:16:13.910Z,86.54
2024-03-02T00:18:40.695Z,86.41
2024-03-02T00:21:10.773Z,86.13
2024-03-02T00:23:38.134Z,86.17
2024-03-02T00:26:04.738Z,86.02
2024-03-02T00:28:36.481Z,85.98
2024-03-02T00:31:07.408Z,86.00
2024-03-02T00:33:48.243Z,86.09
2024-03-02T00:36:23.571Z,86.47
2024-03-02T00:38:51.885Z,86.40
2024-03-02T00:41:24.230Z,86.28
2024-03-02T00:44:07.388Z,86.52
2024-03-02T00:46:51.841Z,86.57
2024-03-02T00:49:23.075Z,87.42
2024-03-02T00:51:53.629Z,88.29
2024-03-02T00:54:22.681Z,88.38
2024-03-02T00:56:49.750Z,88.94
2024-03-02T00:59:19.813Z,89.58
2024-03-02T01:01:49.156Z,90.39
2024-03-02T01:04:17.868Z,91.14
2024-03-02T01:06:47.353Z,91.65
2024-03-02T01:09:14.150Z,92.69
2024-03-02T01:11:40.853Z,92.41
2024-03-02T01:14:07.516Z,92.96
2024-03-02T01:16:33.995Z,93.64
2024-03-02T01:19:00.731Z,94.13
2024-03-02T01:21:27.740Z,95.05
2024-03-02T01:23:54.388Z,95.68
2024-03-02T01:26:20.787Z,96.58
2024-03-02T01:28:47.396Z,96.81
2024-03-02T01:31:14.049Z,97.03
2024-03-02T01:33:40.728Z,97.61
2024-03-02T01:36:09.143Z,97.61
2024-03-02T01:38:35.987Z,97.68
2024-03-02T01:41:03.530Z,97.99
2024-03-02T01:43:30.098Z,98.06
2024-03-02T01:45:57.858Z,98.18
2024-03-02T01:48:24.482Z,98.62
2024-03-02T01:50:51.415Z,98.73
2024-03-02T01:53:17.979Z,98.79
2024-03-02T01:55:44.703Z,99.03
2024-03-02T01:58:11.443Z,99.59
2024-03-02T02:00:38.167Z,99.67
2024-03-02T02:03:04.964Z,100.00
2024-03-02T02:05:32.632Z,100.00
2024-03-02T02:07:59.696Z,100.00
2024-03-02T02:10:26.181Z,100.00
2024-03-02T02:12:52.805Z,100.00
2024-03-02T02:15:37.905Z,100.00
2024-03-02T02:18:05.166Z,100.00
2024-03-02T02:20:31.767Z,100.00
2024-03-02T02:23:03.125Z,100.00
2024-03-02T02:25:30.756Z,100.00
2024-03-02T02:27:58.606Z,100.00
2024-03-02T02:30:33.221Z,100.00
2024-03-02T02:33:00.135Z,100.00
2024-03-02T02:35:26.888Z,100.00
2024-03-02T02:37:55.428Z,100.00
2024-03-02T02:40:22.215Z,100.00
2024-03-02T02:42:49.250Z,100.00
2024-03-02T02:45:16.773Z,100.00
2024-03-02T02:47:44.800Z,100.00
2024-03-02T02:50:12.870Z,100.00
2024-03-02T02:52:41.450Z,100.00
2024-03-02T02:55:10.255Z,100.00
2024-03-02T02:57:39.874Z,100.00
2024-03-02T03:00:11.895Z,100.00
2024-03-02T03:02:43.031Z,100.00
2024-03-02T03:05:11.570Z,100.00
2024-03-02T03:07:38.743Z,100.00
2024-03-02T03:10:05.690Z,100.00
2024-03-02T03:12:35.096Z,100.00
2024-03-02T03:15:02.146Z,100.00
2024-03-02T03:17:28.690Z,100.00
2024-03-02T03:19:55.845Z,100.00
2024-03-02T03:22:22.315Z,100.00
2024-03-02T03:24:48.915Z,100.00
2024-03-02T03:27:15.423Z,100.00
2024-03-02T03:29:41.865Z,100.00
2024-03-02T03:32:09.072Z,100.00
2024-03-02T03:34:36.090Z,100.00
2024-03-02T03:37:03.459Z,100.00
2024-03-02T03:39:29.952Z,100.00
2024-03-02T03:41:56.610Z,100.00
2024-03-02T03:44:23.175Z,100.00
2024-03-02T03:46:49.759Z,100.00
2024-03-02T03:49:16.304Z,100.00
2024-03-02T03:51:42.726Z,100.00
2024-03-02T03:54:09.425Z,100.00
2024-03-02T03:56:35.864Z,100.00
2024-03-02T03:59:02.781Z,100.00
2024-03-02T04:01:29.259Z,100.00
2024-03-02T04:03:56.094Z,100.00
2024-03-02T04:06:22.670Z,100.00
2024-03-02T04:08:49.386Z,100.00
2024-03-02T04:11:16.193Z,100.00
2024-03-02T04:13:42.645Z,100.00
2024-03-02T04:16:09.108Z,100.00
2024-03-02T04:18:36.268Z,100.00
2024-03-02T04:21:02.866Z,100.00
2024-03-02T04:23:29.271Z,100.00
2024-03-02T04:25:55.691Z,100.00
2024-03-02T04:28:22.119Z,100.00
2024-03-02T04:30:48.658Z,100.00
2024-03-02T04:33:15.259Z,100.00
2024-03-02T04:35:41.858Z,100.00
2024-03-02T04:38:08.264Z,100.00
2024-03-02T04:40:34.664Z,100.00
2024-03-02T04:43:01.227Z,100.00
2024-03-02T04:45:27.814Z,100.00
2024-03-02T04:47:54.314Z,100.00
2024-03-02T04:50:20.768Z,100.00
2024-03-02T04:52:47.246Z,100.00
2024-03-02T04:55:29.037Z,100.00
2024-03-02T04:57:58.552Z,100.00
2024-03-02T05:00:25.177Z,100.00
2024-03-02T05:02:52.270Z,100.00
2024-03-02T05:05:19.094Z,100.00
2024-03-02T05:07:45.704Z,100.00
2024-03-02T05:10:15.740Z,100.00
2024-03-02T05:12:45.906Z,100.00
2024-03-02T05:15:14.873Z,100.00
2024-03-02T05:17:45.479Z,100.00
2024-03-02T05:20:12.659Z,100.00
2024-03-02T05:22:39.492Z,100.00
2024-03-02T05:25:08.065Z,100.00
2024-03-02T05:27:34.773Z,100.00
2024-03-02T05:30:01.625Z,100.00
2024-03-02T05:32:28.267Z,100.00
2024-03-02T05:34:56.209Z,100.00
2024-03-02T05:37:22.932Z,100.00
2024-03-02T05:39:49.617Z,100.00
2024-03-02T05:42:17.869Z,100.00
2024-03-02T05:44:44.689Z,99.92
2024-03-02T05:47:11.253Z,99.71
2024-03-02T05:49:37.806Z,99.36
2024-03-02T05:52:04.522Z,98.97
2024-03-02T05:54:31.086Z,98.78
2024-03-02T05:56:57.548Z,98.80
2024-03-02T05:59:23.957Z,98.15
2024-03-02T06:01:53.300Z,97.74
2024-03-02T06:04:20.064Z,98.12
2024-03-02T06:06:46.954Z,97.47
2024-03-02T06:09:13.795Z,97.77
2024-03-02T06:11:41.578Z,97.88
2024-03-02T06:14:09.286Z,97.91
2024-03-02T06:16:36.165Z,98.01
2024-03-02T06:19:03.271Z,98.59
2024-03-02T06:21:30.014Z,98.73
2024-03-02T06:23:57.718Z,98.98
2024-03-02T06:26:26.083Z,99.33
2024-03-02T06:28:53.173Z,99.54
2024-03-02T06:31:19.778Z,99.73
2024-03-02T06:33:46.591Z,99.99
2024-03-02T06:36:13.268Z,100.00
2024-03-02T06:38:43.538Z,100.00
2024-03-02T06:41:10.425Z,100.00
2024-03-02T06:43:36.985Z,99.90
2024-03-02T06:46:03.725Z,99.97
2024-03-02T06:48:31.248Z,99.78
2024-03-02T06:50:59.263Z,99.60
2024-03-02T06:53:26.108Z,99.69
2024-03-02T06:55:52.607Z,99.61
2024-03-02T06:58:19.054Z,99.68
2024-03-02T07:00:45.628Z,99.39
2024-03-02T07:03:12.277Z,99.47
2024-03-02T07:05:38.708Z,99.12
2024-03-02T07:08:06.269Z,98.83
2024-03-02T07:10:32.888Z,99.21
2024-03-02T07:12:59.419Z,99.15
2024-03-02T07:15:28.793Z,99.20
2024-03-02T07:17:55.688Z,99.12
2024-03-02T07:20:22.161Z,98.87
2024-03-02T07:22:48.584Z,98.83
2024-03-02T07:27:45.243Z,98.63
2024-03-02T07:30:17.256Z,97.98
2024-03-02T07:32:46.719Z,98.26
2024-03-02T07:35:14.748Z,98.01
2024-03-02T07:37:43.153Z,97.94
2024-03-02T07:40:12.299Z,97.93
2024-03-02T07:42:40.354Z,97.69
2024-03-02T07:45:07.646Z,98.20
2024-03-02T07:47:36.012Z,98.09
2024-03-02T07:50:02.705Z,97.68
2024-03-02T07:52:29.387Z,97.73
2024-03-02T07:54:56.346Z,97.58
2024-03-02T07:57:22.892Z,97.45
2024-03-02T07:59:50.177Z,97.36
2024-03-02T08:02:16.759Z,97.15
2024-03-02T08:04:43.449Z,97.24
2024-03-02T08:07:10.448Z,97.05
2024-03-02T08:09:36.932Z,97.00
2024-03-02T08:12:03.666Z,96.69
2024-03-02T08:14:30.230Z,96.60
2024-03-02T08:16:57.498Z,96.45
2024-03-02T08:19:24.330Z,96.07
2024-03-02T08:21:51.039Z,96.46
2024-03-02T08:24:17.684Z,96.41
2024-03-02T08:26:44.211Z,95.87
2024-03-02T08:29:11.038Z,95.98
2024-03-02T08:31:39.699Z,95.67
2024-03-02T08:34:07.849Z,95.07
2024-03-02T08:36:34.365Z,94.65
2024-03-02T08:39:03.233Z,94.01
2024-03-02T08:41:29.763Z,93.93
2024-03-02T08:43:56.386Z,93.67
2024-03-02T08:46:22.869Z,93.08
2024-03-02T08:48:49.356Z,93.17
2024-03-02T08:51:15.841Z,92.42
2024-03-02T08:53:42.394Z,91.95
2024-03-02T08:56:08.811Z,92.01
2024-03-02T08:58:35.720Z,91.81
2024-03-02T09:01:02.804Z,91.01
2024-03-02T09:03:37.048Z,90.82
2024-03-02T09:06:03.756Z,91.22
2024-03-02T09:08:30.340Z,90.46
2024-03-02T09:10:57.556Z,89.82
2024-03-02T09:13:24.010Z,89.96
2024-03-02T09:15:50.500Z,89.47
2024-03-02T09:18:16.969Z,88.96
2024-03-02T09:20:43.546Z,88.96
2024-03-02T09:23:10.008Z,86.68
2024-03-02T09:25:41.868Z,86.85
2024-03-02T09:28:08.739Z,86.14
2024-03-02T09:30:35.354Z,86.15
2024-03-02T09:35:31.168Z,83.59
2024-03-02T09:37:57.595Z,83.79
2024-03-02T09:40:24.138Z,83.67
2024-03-02T09:42:55.789Z,82.33
2024-03-02T09:45:28.464Z,81.70
2024-03-02T09:47:55.975Z,82.00
2024-03-02T09:50:25.464Z,81.00
2024-03-02T09:52:53.540Z,80.90
2024-03-02T09:55:20.498Z,78.48
2024-03-02T09:57:47.565Z,78.00
2024-03-02T10:00:15.955Z,77.70
2024-03-02T10:02:43.470Z,77.91
2024-03-02T10:05:10.493Z,77.69
2024-03-02T10:07:36.943Z,77.90
2024-03-02T10:10:15.021Z,77.35
2024-03-02T10:12:41.653Z,76.97
2024-03-02T10:15:10.279Z,76.63
2024-03-02T10:17:36.754Z,75.99
2024-03-02T10:20:24.029Z,75.61
2024-03-02T10:22:50.473Z,75.92
2024-03-02T10:28:07.054Z,74.69
2024-03-02T10:30:35.199Z,73.16
2024-03-02T10:33:06.687Z,73.76
2024-03-02T10:35:34.215Z,72.33
2024-03-02T10:38:01.582Z,72.85
2024-03-02T10:40:28.333Z,72.31
2024-03-02T10:42:55.925Z,71.22
2024-03-02T10:45:25.831Z,70.89
2024-03-02T10:47:52.427Z,70.44
2024-03-02T10:50:18.970Z,72.13
2024-03-02T10:52:46.346Z,70.19
2024-03-02T10:55:13.647Z,69.82
2024-03-02T10:57:51.713Z,70.25
2024-03-02T11:00:25.684Z,69.19
2024-03-02T11:02:57.280Z,68.97
2024-03-02T11:05:35.190Z,69.21
2024-03-02T11:08:05.321Z,68.26
2024-03-02T11:10:37.863Z,67.57
2024-03-02T11:13:11.071Z,68.38
2024-03-02T11:15:38.559Z,69.36
2024-03-02T11:18:09.787Z,68.04
2024-03-02T11:20:39.852Z,68.18
2024-03-02T11:23:10.505Z,68.20
2024-03-02T11:25:37.611Z,65.85
2024-03-02T11:28:06.952Z,66.63
2024-03-02T11:30:33.904Z,65.40
2024-03-02T11:33:08.596Z,64.32
2024-03-02T11:35:49.248Z,65.64
2024-03-02T11:38:15.836Z,63.00
2024-03-02T11:40:42.454Z,63.02
2024-03-02T11:43:13.548Z,62.31
2024-03-02T11:45:45.277Z,63.46
2024-03-02T11:48:15.512Z,60.65
2024-03-02T11:50:47.346Z,61.10
2024-03-02T11:53:14.814Z,61.81
2024-03-02T11:55:42.068Z,58.91
2024-03-02T11:58:09.119Z,60.50
2024-03-02T12:00:36.356Z,60.10
2024-03-02T12:03:05.753Z,61.03
2024-03-02T12:05:33.144Z,60.23
2024-03-02T12:08:01.165Z,60.10
2024-03-02T12:10:28.227Z,60.12
2024-03-02T12:13:08.906Z,58.76
2024-03-02T12:15:40.107Z,58.68
2024-03-02T12:18:07.323Z,59.45
2024-03-02T12:20:34.961Z,58.84
2024-03-02T12:23:04.165Z,58.16
2024-03-02T12:25:34.470Z,60.98
2024-03-02T12:28:02.885Z,61.94
2024-03-02T12:30:36.524Z,60.64
2024-03-02T12:33:03.624Z,58.16
2024-03-02T12:35:31.011Z,59.06
2024-03-02T12:37:57.476Z,59.73
2024-03-02T12:40:24.382Z,58.63
2024-03-02T12:42:52.815Z,61.15
2024-03-02T12:45:26.595Z,60.30
2024-03-02T12:47:53.713Z,59.22
2024-03-02T12:50:21.398Z,58.91
2024-03-02T12:52:55.302Z,58.58
2024-03-02T12:55:26.063Z,60.28
2024-03-02T12:57:53.616Z,57.40
2024-03-02T13:00:21.915Z,58.55
2024-03-02T13:02:49.715Z,59.52
2024-03-02T13:05:16.402Z,62.06
2024-03-02T13:07:43.570Z,57.14
2024-03-02T13:10:10.575Z,60.02
2024-03-02T13:12:38.729Z,61.62
2024-03-02T13:15:06.671Z,60.08
2024-03-02T13:17:37.953Z,61.55
2024-03-02T13:20:09.159Z,56.53
2024-03-02T13:22:36.124Z,59.11
2024-03-02T13:25:05.306Z,60.53
2024-03-02T13:27:33.313Z,58.53
2024-03-02T13:29:59.850Z,56.88
2024-03-02T13:32:27.179Z,58.07
2024-03-02T13:34:53.879Z,57.38
2024-03-02T13:37:21.504Z,57.50
2024-03-02T13:39:47.973Z,59.24
2024-03-02T13:42:16.124Z,61.56
2024-03-02T13:44:49.562Z,61.06
2024-03-02T13:47:18.240Z,63.26
2024-03-02T13:49:46.873Z,60.14
2024-03-02T13:52:17.905Z,60.03
2024-03-02T13:54:46.591Z,57.55
2024-03-02T13:57:13.700Z,59.24
2024-03-02T13:59:41.747Z,59.13
2024-03-02T14:02:10.099Z,62.25
2024-03-02T14:04:38.482Z,60.27
2024-03-02T14:07:08.211Z,60.14
2024-03-02T14:09:35.203Z,60.03
2024-03-02T14:12:01.832Z,60.25
2024-03-02T14:14:28.295Z,63.91
2024-03-02T14:16:57.072Z,60.82
2024-03-02T14:19:23.586Z,64.40
2024-03-02T14:21:50.071Z,61.97
2024-03-02T14:24:16.727Z,59.71
2024-03-02T14:26:45.667Z,63.13
2024-03-02T14:29:12.597Z,63.00
2024-03-02T14:31:39.166Z,59.00
2024-03-02T14:34:05.745Z,60.30
2024-03-02T14:36:32.514Z,59.81
2024-03-02T14:38:59.299Z,58.69
2024-03-02T14:41:25.945Z,56.70
2024-03-02T14:43:53.346Z,57.71
2024-03-02T14:46:20.697Z,57.49
2024-03-02T14:48:47.856Z,59.62
2024-03-02T14:51:15.069Z,57.28
2024-03-02T14:53:41.920Z,55.42
2024-03-02T14:56:08.466Z,59.31
2024-03-02T14:58:36.580Z,56.17
2024-03-02T15:01:10.379Z,56.13
2024-03-02T15:03:37.095Z,56.22
2024-03-02T15:06:05.232Z,56.46
2024-03-02T15:08:37.806Z,56.35
2024-03-02T15:11:05.041Z,56.89
2024-03-02T15:13:37.570Z,55.57
2024-03-02T15:16:04.478Z,57.89
2024-03-02T15:18:31.707Z,56.14
2024-03-02T15:20:58.154Z,58.96
2024-03-02T15:23:27.161Z,58.79
2024-03-02T15:25:53.682Z,56.88
2024-03-02T15:28:20.281Z,57.73
2024-03-02T15:30:46.786Z,56.27
2024-03-02T15:33:13.330Z,59.15
2024-03-02T15:35:39.836Z,57.65
2024-03-02T15:38:14.839Z,58.74
2024-03-02T15:40:45.525Z,57.88
2024-03-02T15:43:11.980Z,58.33
2024-03-02T15:45:41.645Z,59.01
2024-03-02T15:48:08.180Z,60.30
2024-03-02T15:50:35.760Z,64.00
2024-03-02T15:53:05.457Z,60.70
2024-03-02T15:55:32.047Z,62.17
2024-03-02T15:57:58.610Z,61.73
2024-03-02T16:00:25.120Z,60.58
2024-03-02T16:02:51.565Z,61.84
2024-03-02T16:05:19.471Z,62.80
2024-03-02T16:07:46.504Z,63.86
2024-03-02T16:10:13.784Z,63.28
2024-03-02T16:12:40.609Z,62.47
2024-03-02T16:15:08.962Z,63.11
2024-03-02T16:17:35.749Z,64.79
2024-03-02T16:20:06.977Z,64.59
2024-03-02T16:22:34.438Z,64.77
2024-03-02T16:25:01.089Z,65.35
2024-03-02T16:27:28.952Z,64.69
2024-03-02T16:29:59.922Z,65.75
2024-03-02T16:32:29.234Z,66.16
2024-03-02T16:34:56.425Z,66.55
2024-03-02T16:37:24.786Z,67.26
2024-03-02T16:39:51.481Z,67.48
2024-03-02T16:42:20.972Z,67.17
2024-03-02T16:44:53.002Z,67.36
2024-03-02T16:47:19.489Z,68.18
2024-03-02T16:49:46.391Z,68.32
2024-03-02T16:52:14.046Z,68.57
2024-03-02T16:54:40.728Z,69.14
2024-03-02T16:57:07.204Z,68.56
2024-03-02T16:59:33.664Z,69.60
2024-03-02T17:02:00.269Z,69.56
2024-03-02T17:04:27.356Z,69.72
2024-03-02T17:06:54.189Z,71.27
2024-03-02T17:09:20.790Z,70.31
2024-03-02T17:11:47.175Z,71.21
2024-03-02T17:14:13.706Z,71.26
2024-03-02T17:16:40.285Z,71.65
2024-03-02T17:19:06.794Z,71.98
2024-03-02T17:21:33.848Z,73.89
2024-03-02T17:24:03.823Z,73.21
2024-03-02T17:26:30.902Z,73.37
2024-03-02T17:28:57.339Z,73.72
2024-03-02T17:31:23.790Z,74.75
2024-03-02T17:33:50.571Z,75.66
2024-03-02T17:36:17.140Z,75.74
2024-03-02T17:38:43.954Z,75.34
2024-03-02T17:41:11.705Z,75.96
2024-03-02T17:43:38.851Z,75.99
2024-03-02T17:46:05.559Z,76.68
2024-03-02T17:48:32.926Z,76.52
2024-03-02T17:50:59.527Z,75.89
2024-03-02T17:53:26.089Z,76.27
2024-03-02T17:55:52.768Z,76.46
2024-03-02T17:58:19.288Z,76.02
2024-03-02T18:00:47.361Z,76.73
2024-03-02T18:03:13.852Z,76.40
2024-03-02T18:05:40.451Z,76.03
2024-03-02T18:08:07.513Z,76.60
2024-03-02T18:10:34.931Z,76.54
2024-03-02T18:13:04.403Z,76.39
2024-03-02T18:15:31.112Z,77.09
2024-03-02T18:17:57.596Z,76.88
2024-03-02T18:20:24.047Z,76.73
2024-03-02T18:22:50.513Z,76.67
2024-03-02T18:25:17.258Z,76.77
2024-03-02T18:27:43.895Z,77.06
2024-03-02T18:30:13.578Z,77.17
2024-03-02T18:32:40.091Z,77.34
2024-03-02T18:35:09.496Z,77.75
2024-03-02T18:37:37.230Z,76.96
2024-03-02T18:40:06.230Z,77.09
2024-03-02T18:42:34.206Z,77.42
2024-03-02T18:45:04.298Z,77.57
2024-03-02T18:47:30.764Z,77.59
2024-03-02T18:49:58.389Z,77.12
2024-03-02T18:52:28.570Z,77.21
2024-03-02T18:54:55.216Z,77.51
2024-03-02T18:57:21.717Z,77.97
2024-03-02T18:59:48.155Z,77.23
2024-03-02T19:02:14.617Z,76.98
2024-03-02T19:04:42.075Z,77.44
2024-03-02T19:07:08.752Z,77.12
2024-03-02T19:09:35.379Z,77.30
2024-03-02T19:12:01.970Z,77.06
2024-03-02T19:14:30.744Z,76.68
2024-03-02T19:16:57.209Z,76.71
2024-03-02T19:19:23.658Z,76.68
2024-03-02T19:21:56.154Z,76.74
2024-03-02T19:24:28.903Z,77.01
2024-03-02T19:26:55.381Z,76.42
2024-03-02T19:29:24.427Z,76.74
2024-03-02T19:31:50.870Z,76.59
2024-03-02T19:34:18.940Z,76.80
2024-03-02T19:36:45.646Z,76.47
2024-03-02T19:39:12.297Z,76.32
2024-03-02T19:41:38.767Z,76.71
2024-03-02T19:44:07.264Z,76.12
2024-03-02T19:46:33.782Z,77.07
2024-03-02T19:49:00.267Z,76.82
2024-03-02T19:51:26.811Z,76.48
2024-03-02T19:53:53.343Z,77.03
2024-03-02T19:56:20.154Z,77.66
2024-03-02T19:58:46.587Z,77.27
2024-03-02T20:01:13.107Z,77.11
2024-03-02T20:03:39.632Z,77.28
2024-03-02T20:06:06.139Z,77.42
2024-03-02T20:08:32.766Z,77.59
2024-03-02T20:10:59.221Z,77.93
2024-03-02T20:13:25.686Z,77.51
2024-03-02T20:15:53.117Z,78.22
2024-03-02T20:18:19.730Z,77.47
2024-03-02T20:20:46.217Z,78.10
2024-03-02T20:23:12.673Z,78.27
2024-03-02T20:25:39.295Z,77.67
2024-03-02T20:28:06.333Z,77.33
2024-03-02T20:30:32.892Z,77.28
2024-03-02T20:32:59.398Z,77.58
2024-03-02T20:35:25.902Z,78.74
2024-03-02T20:37:52.369Z,78.51
2024-03-02T20:40:20.235Z,78.70
2024-03-02T20:42:47.328Z,78.37
2024-03-02T20:45:19.152Z,78.77
2024-03-02T20:47:55.760Z,79.18
2024-03-02T20:50:22.486Z,79.25
2024-03-02T20:52:49.143Z,79.51
2024-03-02T20:55:15.907Z,79.59
2024-03-02T20:57:42.445Z,80.26
2024-03-02T21:00:09.324Z,80.13
2024-03-02T21:02:35.869Z,79.84
2024-03-02T21:05:03.535Z,79.62
2024-03-02T21:07:30.036Z,79.79
2024-03-02T21:09:58.112Z,80.72
2024-03-02T21:12:24.641Z,80.63
2024-03-02T21:14:51.253Z,80.91
2024-03-02T21:17:18.036Z,80.72
2024-03-02T21:19:44.492Z,80.54
2024-03-02T21:22:11.200Z,81.09
2024-03-02T21:24:39.434Z,80.88
2024-03-02T21:27:07.826Z,81.56
2024-03-02T21:29:34.321Z,81.27
2024-03-02T21:32:00.911Z,81.30
2024-03-02T21:34:27.413Z,80.59
2024-03-02T21:36:53.938Z,80.82
2024-03-02T21:39:25.999Z,81.19
2024-03-02T21:41:59.014Z,80.69
2024-03-02T21:44:25.599Z,80.40
2024-03-02T21:46:52.049Z,80.53
2024-03-02T21:49:18.672Z,80.23
2024-03-02T21:51:45.348Z,80.20
2024-03-02T21:54:11.849Z,80.54
2024-03-02T21:56:38.370Z,80.45
2024-03-02T21:59:04.820Z,79.97
2024-03-02T22:01:31.352Z,78.88
2024-03-02T22:03:58.006Z,78.43
2024-03-02T22:06:24.454Z,79.13
2024-03-02T22:08:53.345Z,78.93
2024-03-02T22:11:19.868Z,79.11
2024-03-02T22:13:50.181Z,78.75
2024-03-02T22:16:17.329Z,79.00
2024-03-02T22:18:43.849Z,79.02
2024-03-02T22:21:10.287Z,79.66
2024-03-02T22:23:39.767Z,79.62
2024-03-02T22:26:06.301Z,78.85
2024-03-02T22:28:32.902Z,79.13
2024-03-02T22:30:59.402Z,79.85
2024-03-02T22:33:25.942Z,78.79
2024-03-02T22:35:52.496Z,79.70
2024-03-02T22:38:20.710Z,78.92
2024-03-02T22:40:47.132Z,78.98
2024-03-02T22:43:13.849Z,78.67
2024-03-02T22:45:40.524Z,78.88
2024-03-02T22:48:07.604Z,78.68
2024-03-02T22:50:34.153Z,78.63
2024-03-02T22:53:00.612Z,78.35
2024-03-02T22:55:28.254Z,78.90
2024-03-02T22:57:57.378Z,78.71
2024-03-02T23:00:32.483Z,78.80
2024-03-02T23:02:59.005Z,78.54
2024-03-02T23:05:25.430Z,78.76
2024-03-02T23:07:52.009Z,78.87
2024-03-02T23:10:20.549Z,79.41
2024-03-02T23:12:47.300Z,78.75
2024-03-02T23:15:13.848Z,78.67
2024-03-02T23:17:40.365Z,78.58
2024-03-02T23:20:07.659Z,78.86
2024-03-02T23:22:34.216Z,78.73
2024-03-02T23:25:00.805Z,78.00
2024-03-02T23:27:30.308Z,78.27
2024-03-02T23:29:57.069Z,77.53
2024-03-02T23:32:23.873Z,78.76
2024-03-02T23:34:50.371Z,78.10
2024-03-02T23:37:17.045Z,77.94
2024-03-02T23:39:47.124Z,78.04
2024-03-02T23:42:13.583Z,78.65
2024-03-02T23:44:40.128Z,79.08
2024-03-02T23:47:07.054Z,78.00
2024-03-02T23:49:33.614Z,78.55
2024-03-02T23:52:03.172Z,77.77
2024-03-02T23:54:29.698Z,77.85
2024-03-02T23:56:56.303Z,77.76
2024-03-02T23:59:22.840Z,77.67
